sensor_id;sensor_type;location;lat;lon;timestamp;P1;P2;P0
46302;PMS7003;32029;51.358;5.628;2023-02-18T00:01:27;2.00;2.00;2.00
46302;PMS7003;32029;51.358;5.628;2023-02-18T00:03:56;2.33;2.00;2.00
46302;PMS7003;32029;51.358;5.628;2023-02-18T00:06:24;2.67;1.67;1.33
46302;PMS7003;32029;51.358;5.628;2023-02-18T00:08:54;1.00;1.00;1.00
46302;PMS7003;32029;51.358;5.628;2023-02-18T00:11:22;1.00;1.00;1.00
46302;PMS7003;32029;51.358;5.628;2023-02-18T00:13:51;3.60;2.00;1.60
46302;PMS7003;32029;51.358;5.628;2023-02-18T00:16:19;1.00;1.00;1.00
46302;PMS7003;32029;51.358;5.628;2023-02-18T00:18:49;3.00;1.33;1.00
46302;PMS7003;32029;51.358;5.628;2023-02-18T00:21:20;1.00;1.00;0.33
46302;PMS7003;32029;51.358;5.628;2023-02-18T00:23:47;1.67;1.67;1.67
46302;PMS7003;32029;51.358;5.628;2023-02-18T00:26:15;2.00;1.00;1.00
46302;PMS7003;32029;51.358;5.628;2023-02-18T00:28:43;2.33;2.00;1.00
46302;PMS7003;32029;51.358;5.628;2023-02-18T00:31:19;2.00;2.00;1.00
46302;PMS7003;32029;51.358;5.628;2023-02-18T00:33:52;1.33;1.33;1.00
46302;PMS7003;32029;51.358;5.628;2023-02-18T00:36:19;1.00;1.00;1.00
46302;PMS7003;32029;51.358;5.628;2023-02-18T00:38:49;1.00;1.00;1.00
46302;PMS7003;32029;51.358;5.628;2023-02-18T00:41:18;2.33;1.00;1.00
46302;PMS7003;32029;51.358;5.628;2023-02-18T00:43:46;1.00;0.67;0.67
46302;PMS7003;32029;51.358;5.628;2023-02-18T00:46:13;1.00;1.00;0.33
46302;PMS7003;32029;51.358;5.628;2023-02-18T00:48:40;3.00;1.00;1.00
46302;PMS7003;32029;51.358;5.628;2023-02-18T00:51:07;1.00;1.00;1.00
46302;PMS7003;32029;51.358;5.628;2023-02-18T00:53:36;3.67;2.00;1.67
46302;PMS7003;32029;51.358;5.628;2023-02-18T00:56:04;3.67;1.00;0.67
46302;PMS7003;32029;51.358;5.628;2023-02-18T00:58:33;2.33;2.33;1.33
46302;PMS7003;32029;51.358;5.628;2023-02-18T01:01:02;2.33;2.33;2.00
46302;PMS7003;32029;51.358;5.628;2023-02-18T01:03:30;1.00;1.00;1.00
46302;PMS7003;32029;51.358;5.628;2023-02-18T01:05:58;1.00;1.00;1.00
46302;PMS7003;32029;51.358;5.628;2023-02-18T01:08:24;2.00;1.00;1.00
46302;PMS7003;32029;51.358;5.628;2023-02-18T01:10:53;3.00;2.00;1.00
46302;PMS7003;32029;51.358;5.628;2023-02-18T01:13:22;5.00;2.00;2.00
46302;PMS7003;32029;51.358;5.628;2023-02-18T01:15:51;2.00;1.00;1.00
46302;PMS7003;32029;51.358;5.628;2023-02-18T01:18:19;4.00;1.00;1.00
46302;PMS7003;32029;51.358;5.628;2023-02-18T01:20:47;3.33;2.33;1.00
46302;PMS7003;32029;51.358;5.628;2023-02-18T01:23:14;0.00;0.00;0.00
46302;PMS7003;32029;51.358;5.628;2023-02-18T01:25:40;1.00;1.00;1.00
46302;PMS7003;32029;51.358;5.628;2023-02-18T01:28:09;0.00;0.00;0.00
46302;PMS7003;32029;51.358;5.628;2023-02-18T01:30:37;1.67;0.33;0.33
46302;PMS7003;32029;51.358;5.628;2023-02-18T01:33:05;1.00;1.00;1.00
46302;PMS7003;32029;51.358;5.628;2023-02-18T01:35:33;4.67;4.67;3.00
46302;PMS7003;32029;51.358;5.628;2023-02-18T01:38:07;2.67;2.67;2.00
46302;PMS7003;32029;51.358;5.628;2023-02-18T01:40:35;0.67;0.33;0.00
46302;PMS7003;32029;51.358;5.628;2023-02-18T01:43:10;1.00;1.00;1.00
46302;PMS7003;32029;51.358;5.628;2023-02-18T01:54:04;3.00;2.00;1.00
46302;PMS7003;32029;51.358;5.628;2023-02-18T01:59:37;3.33;3.33;2.00
46302;PMS7003;32029;51.358;5.628;2023-02-18T02:02:07;0.00;0.00;0.00
46302;PMS7003;32029;51.358;5.628;2023-02-18T02:04:42;2.00;1.00;1.00
46302;PMS7003;32029;51.358;5.628;2023-02-18T02:07:09;1.00;1.00;1.00
46302;PMS7003;32029;51.358;5.628;2023-02-18T02:09:36;1.00;1.00;1.00
46302;PMS7003;32029;51.358;5.628;2023-02-18T02:12:10;3.33;2.33;2.00
46302;PMS7003;32029;51.358;5.628;2023-02-18T02:21:06;1.67;1.67;1.00
46302;PMS7003;32029;51.358;5.628;2023-02-18T02:29:07;1.33;1.33;0.67
46302;PMS7003;32029;51.358;5.628;2023-02-18T02:32:03;2.33;1.00;1.00
46302;PMS7003;32029;51.358;5.628;2023-02-18T02:35:01;3.67;1.00;1.00
46302;PMS7003;32029;51.358;5.628;2023-02-18T02:42:55;2.67;2.67;2.33
46302;PMS7003;32029;51.358;5.628;2023-02-18T02:45:32;2.33;2.00;1.00
46302;PMS7003;32029;51.358;5.628;2023-02-18T02:51:04;2.67;2.67;1.00
46302;PMS7003;32029;51.358;5.628;2023-02-18T02:53:38;0.67;0.67;0.67
46302;PMS7003;32029;51.358;5.628;2023-02-18T02:56:08;1.00;1.00;0.67
46302;PMS7003;32029;51.358;5.628;2023-02-18T02:58:39;3.00;3.00;1.00
46302;PMS7003;32029;51.358;5.628;2023-02-18T03:06:55;1.00;1.00;0.00
46302;PMS7003;32029;51.358;5.628;2023-02-18T03:12:42;1.00;1.00;1.00
46302;PMS7003;32029;51.358;5.628;2023-02-18T03:20:36;0.00;0.00;0.00
46302;PMS7003;32029;51.358;5.628;2023-02-18T03:23:10;1.00;0.00;0.00
46302;PMS7003;32029;51.358;5.628;2023-02-18T03:25:41;0.00;0.00;0.00
46302;PMS7003;32029;51.358;5.628;2023-02-18T03:28:13;0.00;0.00;0.00
46302;PMS7003;32029;51.358;5.628;2023-02-18T03:30:45;0.00;0.00;0.00
46302;PMS7003;32029;51.358;5.628;2023-02-18T03:33:26;1.00;0.00;0.00
46302;PMS7003;32029;51.358;5.628;2023-02-18T03:35:57;0.00;0.00;0.00
46302;PMS7003;32029;51.358;5.628;2023-02-18T03:38:25;0.00;0.00;0.00
46302;PMS7003;32029;51.358;5.628;2023-02-18T03:40:58;0.00;0.00;0.00
46302;PMS7003;32029;51.358;5.628;2023-02-18T03:43:25;0.00;0.00;0.00
46302;PMS7003;32029;51.358;5.628;2023-02-18T03:45:52;0.00;0.00;0.00
46302;PMS7003;32029;51.358;5.628;2023-02-18T03:48:19;0.00;0.00;0.00
46302;PMS7003;32029;51.358;5.628;2023-02-18T03:50:46;0.00;0.00;0.00
46302;PMS7003;32029;51.358;5.628;2023-02-18T03:53:12;0.00;0.00;0.00
46302;PMS7003;32029;51.358;5.628;2023-02-18T03:55:39;0.00;0.00;0.00
46302;PMS7003;32029;51.358;5.628;2023-02-18T03:58:06;0.00;0.00;0.00
46302;PMS7003;32029;51.358;5.628;2023-02-18T04:00:32;0.00;0.00;0.00
46302;PMS7003;32029;51.358;5.628;2023-02-18T04:02:59;0.00;0.00;0.00
46302;PMS7003;32029;51.358;5.628;2023-02-18T04:05:26;0.00;0.00;0.00
46302;PMS7003;32029;51.358;5.628;2023-02-18T04:07:53;0.00;0.00;0.00
46302;PMS7003;32029;51.358;5.628;2023-02-18T04:10:20;1.00;0.00;0.00
46302;PMS7003;32029;51.358;5.628;2023-02-18T04:12:48;0.00;0.00;0.00
46302;PMS7003;32029;51.358;5.628;2023-02-18T04:15:14;0.00;0.00;0.00
46302;PMS7003;32029;51.358;5.628;2023-02-18T04:17:41;0.00;0.00;0.00
46302;PMS7003;32029;51.358;5.628;2023-02-18T04:20:08;0.00;0.00;0.00
46302;PMS7003;32029;51.358;5.628;2023-02-18T04:22:35;0.00;0.00;0.00
46302;PMS7003;32029;51.358;5.628;2023-02-18T04:25:02;0.00;0.00;0.00
46302;PMS7003;32029;51.358;5.628;2023-02-18T04:27:28;0.00;0.00;0.00
46302;PMS7003;32029;51.358;5.628;2023-02-18T04:29:55;1.00;0.00;0.00
46302;PMS7003;32029;51.358;5.628;2023-02-18T04:32:22;0.00;0.00;0.00
46302;PMS7003;32029;51.358;5.628;2023-02-18T04:34:48;0.00;0.00;0.00
46302;PMS7003;32029;51.358;5.628;2023-02-18T04:37:15;0.00;0.00;0.00
46302;PMS7003;32029;51.358;5.628;2023-02-18T04:39:42;0.00;0.00;0.00
46302;PMS7003;32029;51.358;5.628;2023-02-18T04:42:08;0.00;0.00;0.00
46302;PMS7003;32029;51.358;5.628;2023-02-18T04:44:36;0.00;0.00;0.00
46302;PMS7003;32029;51.358;5.628;2023-02-18T04:47:04;0.00;0.00;0.00
46302;PMS7003;32029;51.358;5.628;2023-02-18T04:49:31;0.00;0.00;0.00
46302;PMS7003;32029;51.358;5.628;2023-02-18T04:51:59;0.00;0.00;0.00
46302;PMS7003;32029;51.358;5.628;2023-02-18T04:54:25;0.00;0.00;0.00
46302;PMS7003;32029;51.358;5.628;2023-02-18T04:56:52;0.00;0.00;0.00
46302;PMS7003;32029;51.358;5.628;2023-02-18T04:59:19;0.00;0.00;0.00
46302;PMS7003;32029;51.358;5.628;2023-02-18T05:01:45;0.00;0.00;0.00
46302;PMS7003;32029;51.358;5.628;2023-02-18T05:04:12;0.00;0.00;0.00
46302;PMS7003;32029;51.358;5.628;2023-02-18T05:06:39;0.00;0.00;0.00
46302;PMS7003;32029;51.358;5.628;2023-02-18T05:09:08;0.00;0.00;0.00
46302;PMS7003;32029;51.358;5.628;2023-02-18T05:11:36;1.00;0.00;0.00
46302;PMS7003;32029;51.358;5.628;2023-02-18T05:14:03;0.00;0.00;0.00
46302;PMS7003;32029;51.358;5.628;2023-02-18T05:16:30;0.00;0.00;0.00
46302;PMS7003;32029;51.358;5.628;2023-02-18T05:18:56;0.00;0.00;0.00
46302;PMS7003;32029;51.358;5.628;2023-02-18T05:21:23;0.00;0.00;0.00
46302;PMS7003;32029;51.358;5.628;2023-02-18T05:23:50;0.00;0.00;0.00
46302;PMS7003;32029;51.358;5.628;2023-02-18T05:26:17;0.00;0.00;0.00
46302;PMS7003;32029;51.358;5.628;2023-02-18T05:28:43;0.00;0.00;0.00
46302;PMS7003;32029;51.358;5.628;2023-02-18T05:31:10;0.00;0.00;0.00
46302;PMS7003;32029;51.358;5.628;2023-02-18T05:33:37;0.00;0.00;0.00
46302;PMS7003;32029;51.358;5.628;2023-02-18T05:36:03;0.00;0.00;0.00
46302;PMS7003;32029;51.358;5.628;2023-02-18T05:38:30;0.00;0.00;0.00
46302;PMS7003;32029;51.358;5.628;2023-02-18T05:40:57;0.00;0.00;0.00
46302;PMS7003;32029;51.358;5.628;2023-02-18T05:43:23;1.00;0.00;0.00
46302;PMS7003;32029;51.358;5.628;2023-02-18T05:45:50;0.00;0.00;0.00
46302;PMS7003;32029;51.358;5.628;2023-02-18T05:48:17;0.00;0.00;0.00
46302;PMS7003;32029;51.358;5.628;2023-02-18T05:50:43;0.00;0.00;0.00
46302;PMS7003;32029;51.358;5.628;2023-02-18T05:53:10;0.00;0.00;0.00
46302;PMS7003;32029;51.358;5.628;2023-02-18T05:55:37;1.00;0.00;0.00
46302;PMS7003;32029;51.358;5.628;2023-02-18T05:58:04;0.00;0.00;0.00
46302;PMS7003;32029;51.358;5.628;2023-02-18T06:00:31;0.00;0.00;0.00
46302;PMS7003;32029;51.358;5.628;2023-02-18T06:02:58;0.00;0.00;0.00
46302;PMS7003;32029;51.358;5.628;2023-02-18T06:05:24;0.00;0.00;0.00
46302;PMS7003;32029;51.358;5.628;2023-02-18T06:07:51;1.00;0.00;0.00
46302;PMS7003;32029;51.358;5.628;2023-02-18T06:10:18;0.00;0.00;0.00
46302;PMS7003;32029;51.358;5.628;2023-02-18T06:12:44;0.00;0.00;0.00
46302;PMS7003;32029;51.358;5.628;2023-02-18T06:15:11;0.00;0.00;0.00
46302;PMS7003;32029;51.358;5.628;2023-02-18T06:17:37;0.00;0.00;0.00
46302;PMS7003;32029;51.358;5.628;2023-02-18T06:20:04;0.00;0.00;0.00
46302;PMS7003;32029;51.358;5.628;2023-02-18T06:22:31;0.00;0.00;0.00
46302;PMS7003;32029;51.358;5.628;2023-02-18T06:24:58;0.00;0.00;0.00
46302;PMS7003;32029;51.358;5.628;2023-02-18T06:27:25;0.00;0.00;0.00
46302;PMS7003;32029;51.358;5.628;2023-02-18T06:29:52;0.00;0.00;0.00
46302;PMS7003;32029;51.358;5.628;2023-02-18T06:32:18;0.00;0.00;0.00
46302;PMS7003;32029;51.358;5.628;2023-02-18T06:34:45;0.00;0.00;0.00
46302;PMS7003;32029;51.358;5.628;2023-02-18T06:37:12;0.00;0.00;0.00
46302;PMS7003;32029;51.358;5.628;2023-02-18T06:39:38;0.00;0.00;0.00
46302;PMS7003;32029;51.358;5.628;2023-02-18T06:42:05;0.00;0.00;0.00
46302;PMS7003;32029;51.358;5.628;2023-02-18T06:44:32;0.00;0.00;0.00
46302;PMS7003;32029;51.358;5.628;2023-02-18T06:46:59;0.00;0.00;0.00
46302;PMS7003;32029;51.358;5.628;2023-02-18T06:49:25;0.00;0.00;0.00
46302;PMS7003;32029;51.358;5.628;2023-02-18T06:51:52;0.00;0.00;0.00
46302;PMS7003;32029;51.358;5.628;2023-02-18T06:54:19;0.00;0.00;0.00
46302;PMS7003;32029;51.358;5.628;2023-02-18T06:56:45;0.00;0.00;0.00
46302;PMS7003;32029;51.358;5.628;2023-02-18T06:59:12;0.00;0.00;0.00
46302;PMS7003;32029;51.358;5.628;2023-02-18T07:01:39;0.00;0.00;0.00
46302;PMS7003;32029;51.358;5.628;2023-02-18T07:04:05;0.00;0.00;0.00
46302;PMS7003;32029;51.358;5.628;2023-02-18T07:06:32;0.00;0.00;0.00
46302;PMS7003;32029;51.358;5.628;2023-02-18T07:08:59;0.00;0.00;0.00
46302;PMS7003;32029;51.358;5.628;2023-02-18T07:11:25;0.33;0.00;0.00
46302;PMS7003;32029;51.358;5.628;2023-02-18T07:13:52;0.00;0.00;0.00
46302;PMS7003;32029;51.358;5.628;2023-02-18T07:16:19;1.00;0.00;0.00
46302;PMS7003;32029;51.358;5.628;2023-02-18T07:18:46;0.00;0.00;0.00
46302;PMS7003;32029;51.358;5.628;2023-02-18T07:21:12;0.00;0.00;0.00
46302;PMS7003;32029;51.358;5.628;2023-02-18T07:23:39;0.00;0.00;0.00
46302;PMS7003;32029;51.358;5.628;2023-02-18T07:26:06;1.00;0.00;0.00
46302;PMS7003;32029;51.358;5.628;2023-02-18T07:28:35;0.00;0.00;0.00
46302;PMS7003;32029;51.358;5.628;2023-02-18T07:31:02;0.00;0.00;0.00
46302;PMS7003;32029;51.358;5.628;2023-02-18T07:33:30;0.00;0.00;0.00
46302;PMS7003;32029;51.358;5.628;2023-02-18T07:35:58;0.00;0.00;0.00
46302;PMS7003;32029;51.358;5.628;2023-02-18T07:38:26;1.67;0.00;0.00
46302;PMS7003;32029;51.358;5.628;2023-02-18T07:40:55;0.00;0.00;0.00
46302;PMS7003;32029;51.358;5.628;2023-02-18T07:43:23;0.00;0.00;0.00
46302;PMS7003;32029;51.358;5.628;2023-02-18T07:45:49;0.00;0.00;0.00
46302;PMS7003;32029;51.358;5.628;2023-02-18T07:48:16;0.00;0.00;0.00
46302;PMS7003;32029;51.358;5.628;2023-02-18T07:50:44;0.00;0.00;0.00
46302;PMS7003;32029;51.358;5.628;2023-02-18T07:53:12;0.00;0.00;0.00
46302;PMS7003;32029;51.358;5.628;2023-02-18T07:55:40;0.00;0.00;0.00
46302;PMS7003;32029;51.358;5.628;2023-02-18T07:58:22;0.00;0.00;0.00
46302;PMS7003;32029;51.358;5.628;2023-02-18T08:00:51;0.00;0.00;0.00
46302;PMS7003;32029;51.358;5.628;2023-02-18T08:03:22;0.00;0.00;0.00
46302;PMS7003;32029;51.358;5.628;2023-02-18T08:05:50;0.00;0.00;0.00
46302;PMS7003;32029;51.358;5.628;2023-02-18T08:08:19;0.00;0.00;0.00
46302;PMS7003;32029;51.358;5.628;2023-02-18T08:10:47;0.00;0.00;0.00
46302;PMS7003;32029;51.358;5.628;2023-02-18T08:13:15;0.33;0.00;0.00
46302;PMS7003;32029;51.358;5.628;2023-02-18T08:15:42;1.00;0.00;0.00
46302;PMS7003;32029;51.358;5.628;2023-02-18T08:18:13;0.00;0.00;0.00
46302;PMS7003;32029;51.358;5.628;2023-02-18T08:20:42;0.00;0.00;0.00
46302;PMS7003;32029;51.358;5.628;2023-02-18T08:23:09;0.00;0.00;0.00
46302;PMS7003;32029;51.358;5.628;2023-02-18T08:25:36;0.00;0.00;0.00
46302;PMS7003;32029;51.358;5.628;2023-02-18T08:28:03;0.00;0.00;0.00
46302;PMS7003;32029;51.358;5.628;2023-02-18T08:30:30;0.00;0.00;0.00
46302;PMS7003;32029;51.358;5.628;2023-02-18T08:32:57;0.00;0.00;0.00
46302;PMS7003;32029;51.358;5.628;2023-02-18T08:35:24;0.00;0.00;0.00
46302;PMS7003;32029;51.358;5.628;2023-02-18T08:37:50;0.00;0.00;0.00
46302;PMS7003;32029;51.358;5.628;2023-02-18T08:40:17;0.00;0.00;0.00
46302;PMS7003;32029;51.358;5.628;2023-02-18T08:42:44;1.00;0.00;0.00
46302;PMS7003;32029;51.358;5.628;2023-02-18T08:45:10;0.00;0.00;0.00
46302;PMS7003;32029;51.358;5.628;2023-02-18T08:47:37;1.67;0.67;0.00
46302;PMS7003;32029;51.358;5.628;2023-02-18T08:50:04;0.00;0.00;0.00
46302;PMS7003;32029;51.358;5.628;2023-02-18T08:52:31;0.00;0.00;0.00
46302;PMS7003;32029;51.358;5.628;2023-02-18T08:54:57;0.00;0.00;0.00
46302;PMS7003;32029;51.358;5.628;2023-02-18T08:57:25;0.00;0.00;0.00
46302;PMS7003;32029;51.358;5.628;2023-02-18T08:59:53;0.00;0.00;0.00
46302;PMS7003;32029;51.358;5.628;2023-02-18T09:02:20;0.00;0.00;0.00
46302;PMS7003;32029;51.358;5.628;2023-02-18T09:04:46;0.00;0.00;0.00
46302;PMS7003;32029;51.358;5.628;2023-02-18T09:07:13;1.00;0.00;0.00
46302;PMS7003;32029;51.358;5.628;2023-02-18T09:09:40;0.00;0.00;0.00
46302;PMS7003;32029;51.358;5.628;2023-02-18T09:12:07;0.00;0.00;0.00
46302;PMS7003;32029;51.358;5.628;2023-02-18T09:14:34;0.00;0.00;0.00
46302;PMS7003;32029;51.358;5.628;2023-02-18T09:17:00;0.00;0.00;0.00
46302;PMS7003;32029;51.358;5.628;2023-02-18T09:19:27;0.00;0.00;0.00
46302;PMS7003;32029;51.358;5.628;2023-02-18T09:21:54;1.00;0.00;0.00
46302;PMS7003;32029;51.358;5.628;2023-02-18T09:24:22;0.00;0.00;0.00
46302;PMS7003;32029;51.358;5.628;2023-02-18T09:26:50;1.00;0.00;0.00
46302;PMS7003;32029;51.358;5.628;2023-02-18T09:29:16;0.00;0.00;0.00
46302;PMS7003;32029;51.358;5.628;2023-02-18T09:31:45;0.00;0.00;0.00
46302;PMS7003;32029;51.358;5.628;2023-02-18T09:34:11;0.00;0.00;0.00
46302;PMS7003;32029;51.358;5.628;2023-02-18T09:36:38;0.00;0.00;0.00
46302;PMS7003;32029;51.358;5.628;2023-02-18T09:39:05;0.00;0.00;0.00
46302;PMS7003;32029;51.358;5.628;2023-02-18T09:41:40;1.00;0.00;0.00
46302;PMS7003;32029;51.358;5.628;2023-02-18T09:47:10;0.00;0.00;0.00
46302;PMS7003;32029;51.358;5.628;2023-02-18T09:49:42;0.00;0.00;0.00
46302;PMS7003;32029;51.358;5.628;2023-02-18T09:52:29;0.00;0.00;0.00
46302;PMS7003;32029;51.358;5.628;2023-02-18T09:54:58;0.00;0.00;0.00
46302;PMS7003;32029;51.358;5.628;2023-02-18T10:00:28;0.00;0.00;0.00
46302;PMS7003;32029;51.358;5.628;2023-02-18T10:03:02;0.00;0.00;0.00
46302;PMS7003;32029;51.358;5.628;2023-02-18T10:05:33;0.00;0.00;0.00
46302;PMS7003;32029;51.358;5.628;2023-02-18T10:08:03;0.00;0.00;0.00
46302;PMS7003;32029;51.358;5.628;2023-02-18T10:10:34;0.00;0.00;0.00
46302;PMS7003;32029;51.358;5.628;2023-02-18T10:13:15;0.00;0.00;0.00
46302;PMS7003;32029;51.358;5.628;2023-02-18T10:15:47;0.00;0.00;0.00
46302;PMS7003;32029;51.358;5.628;2023-02-18T10:20:58;0.00;0.00;0.00
46302;PMS7003;32029;51.358;5.628;2023-02-18T10:23:30;0.00;0.00;0.00
46302;PMS7003;32029;51.358;5.628;2023-02-18T10:26:00;0.25;0.00;0.00
46302;PMS7003;32029;51.358;5.628;2023-02-18T10:28:30;0.00;0.00;0.00
46302;PMS7003;32029;51.358;5.628;2023-02-18T10:31:07;1.00;0.00;0.00
46302;PMS7003;32029;51.358;5.628;2023-02-18T10:33:40;0.00;0.00;0.00
46302;PMS7003;32029;51.358;5.628;2023-02-18T10:38:46;0.00;0.00;0.00
46302;PMS7003;32029;51.358;5.628;2023-02-18T10:41:52;0.00;0.00;0.00
46302;PMS7003;32029;51.358;5.628;2023-02-18T10:49:54;0.00;0.00;0.00
46302;PMS7003;32029;51.358;5.628;2023-02-18T10:52:24;0.00;0.00;0.00
46302;PMS7003;32029;51.358;5.628;2023-02-18T10:54:59;0.00;0.00;0.00
46302;PMS7003;32029;51.358;5.628;2023-02-18T10:57:30;0.00;0.00;0.00
46302;PMS7003;32029;51.358;5.628;2023-02-18T10:59:59;0.00;0.00;0.00
46302;PMS7003;32029;51.358;5.628;2023-02-18T11:02:36;0.00;0.00;0.00
46302;PMS7003;32029;51.358;5.628;2023-02-18T11:05:11;0.00;0.00;0.00
46302;PMS7003;32029;51.358;5.628;2023-02-18T11:07:49;0.00;0.00;0.00
46302;PMS7003;32029;51.358;5.628;2023-02-18T11:10:21;0.00;0.00;0.00
46302;PMS7003;32029;51.358;5.628;2023-02-18T11:13:12;0.00;0.00;0.00
46302;PMS7003;32029;51.358;5.628;2023-02-18T11:16:03;0.00;0.00;0.00
46302;PMS7003;32029;51.358;5.628;2023-02-18T11:18:38;0.00;0.00;0.00
46302;PMS7003;32029;51.358;5.628;2023-02-18T11:23:56;0.00;0.00;0.00
46302;PMS7003;32029;51.358;5.628;2023-02-18T11:26:31;1.00;0.00;0.00
46302;PMS7003;32029;51.358;5.628;2023-02-18T11:29:01;0.00;0.00;0.00
46302;PMS7003;32029;51.358;5.628;2023-02-18T11:31:52;0.00;0.00;0.00
46302;PMS7003;32029;51.358;5.628;2023-02-18T11:34:23;0.00;0.00;0.00
46302;PMS7003;32029;51.358;5.628;2023-02-18T11:36:54;1.67;1.67;0.00
46302;PMS7003;32029;51.358;5.628;2023-02-18T11:39:33;1.00;0.00;0.00
46302;PMS7003;32029;51.358;5.628;2023-02-18T11:42:01;0.00;0.00;0.00
46302;PMS7003;32029;51.358;5.628;2023-02-18T11:44:35;0.33;0.00;0.00
46302;PMS7003;32029;51.358;5.628;2023-02-18T11:49:43;0.00;0.00;0.00
46302;PMS7003;32029;51.358;5.628;2023-02-18T11:52:34;0.00;0.00;0.00
46302;PMS7003;32029;51.358;5.628;2023-02-18T11:58:01;1.67;0.00;0.00
46302;PMS7003;32029;51.358;5.628;2023-02-18T12:00:38;0.00;0.00;0.00
46302;PMS7003;32029;51.358;5.628;2023-02-18T12:06:22;1.67;0.67;0.67
46302;PMS7003;32029;51.358;5.628;2023-02-18T12:08:55;0.67;0.33;0.00
46302;PMS7003;32029;51.358;5.628;2023-02-18T12:11:27;0.67;0.67;0.00
46302;PMS7003;32029;51.358;5.628;2023-02-18T12:13:59;1.00;1.00;0.00
46302;PMS7003;32029;51.358;5.628;2023-02-18T12:22:18;0.00;0.00;0.00
46302;PMS7003;32029;51.358;5.628;2023-02-18T12:33:04;2.67;2.00;1.33
46302;PMS7003;32029;51.358;5.628;2023-02-18T12:41:30;4.00;2.33;1.00
46302;PMS7003;32029;51.358;5.628;2023-02-18T12:44:21;5.33;1.33;1.00
46302;PMS7003;32029;51.358;5.628;2023-02-18T12:55:57;1.67;1.67;1.00
46302;PMS7003;32029;51.358;5.628;2023-02-18T13:03:58;2.00;2.00;2.00
46302;PMS7003;32029;51.358;5.628;2023-02-18T13:06:47;3.00;2.67;2.67
46302;PMS7003;32029;51.358;5.628;2023-02-18T13:09:33;1.00;1.00;1.00
46302;PMS7003;32029;51.358;5.628;2023-02-18T13:14:54;4.00;1.33;1.00
46302;PMS7003;32029;51.358;5.628;2023-02-18T13:17:38;3.00;1.67;1.67
46302;PMS7003;32029;51.358;5.628;2023-02-18T13:20:21;1.33;1.00;0.67
46302;PMS7003;32029;51.358;5.628;2023-02-18T13:22:54;1.67;1.67;1.00
46302;PMS7003;32029;51.358;5.628;2023-02-18T13:25:22;1.00;1.00;1.00
46302;PMS7003;32029;51.358;5.628;2023-02-18T13:30:30;3.67;2.00;2.00
46302;PMS7003;32029;51.358;5.628;2023-02-18T13:41:28;6.00;1.67;1.67
46302;PMS7003;32029;51.358;5.628;2023-02-18T13:43:59;4.00;3.00;3.00
46302;PMS7003;32029;51.358;5.628;2023-02-18T13:46:26;5.67;5.67;3.00
46302;PMS7003;32029;51.358;5.628;2023-02-18T13:51:30;3.00;3.00;2.00
46302;PMS7003;32029;51.358;5.628;2023-02-18T13:56:43;1.67;1.67;1.67
46302;PMS7003;32029;51.358;5.628;2023-02-18T13:59:26;2.00;1.00;0.33
46302;PMS7003;32029;51.358;5.628;2023-02-18T14:02:27;2.00;0.67;0.67
46302;PMS7003;32029;51.358;5.628;2023-02-18T14:12:40;5.33;3.33;3.00
46302;PMS7003;32029;51.358;5.628;2023-02-18T14:17:48;2.00;2.00;1.67
46302;PMS7003;32029;51.358;5.628;2023-02-18T14:28:36;4.33;2.00;1.00
46302;PMS7003;32029;51.358;5.628;2023-02-18T14:41:57;1.00;1.00;0.33
46302;PMS7003;32029;51.358;5.628;2023-02-18T14:44:43;0.00;0.00;0.00
46302;PMS7003;32029;51.358;5.628;2023-02-18T14:50:16;1.33;0.00;0.00
46302;PMS7003;32029;51.358;5.628;2023-02-18T14:52:52;1.00;1.00;1.00
46302;PMS7003;32029;51.358;5.628;2023-02-18T14:55:39;2.00;1.00;0.33
46302;PMS7003;32029;51.358;5.628;2023-02-18T15:01:04;1.67;0.33;0.33
46302;PMS7003;32029;51.358;5.628;2023-02-18T15:03:48;1.00;1.00;0.00
46302;PMS7003;32029;51.358;5.628;2023-02-18T15:09:16;2.00;1.00;1.00
46302;PMS7003;32029;51.358;5.628;2023-02-18T15:11:46;2.00;1.00;1.00
46302;PMS7003;32029;51.358;5.628;2023-02-18T15:14:17;0.67;0.00;0.00
46302;PMS7003;32029;51.358;5.628;2023-02-18T15:16:48;0.00;0.00;0.00
46302;PMS7003;32029;51.358;5.628;2023-02-18T15:19:17;0.00;0.00;0.00
46302;PMS7003;32029;51.358;5.628;2023-02-18T15:21:48;0.00;0.00;0.00
46302;PMS7003;32029;51.358;5.628;2023-02-18T15:24:29;1.00;1.00;1.00
46302;PMS7003;32029;51.358;5.628;2023-02-18T15:27:08;0.00;0.00;0.00
46302;PMS7003;32029;51.358;5.628;2023-02-18T15:29:39;0.00;0.00;0.00
46302;PMS7003;32029;51.358;5.628;2023-02-18T15:32:17;0.00;0.00;0.00
46302;PMS7003;32029;51.358;5.628;2023-02-18T15:34:59;0.00;0.00;0.00
46302;PMS7003;32029;51.358;5.628;2023-02-18T15:37:27;0.00;0.00;0.00
46302;PMS7003;32029;51.358;5.628;2023-02-18T15:39:57;1.00;0.00;0.00
46302;PMS7003;32029;51.358;5.628;2023-02-18T15:42:30;0.00;0.00;0.00
46302;PMS7003;32029;51.358;5.628;2023-02-18T15:47:34;1.00;0.00;0.00
46302;PMS7003;32029;51.358;5.628;2023-02-18T15:50:16;0.00;0.00;0.00
46302;PMS7003;32029;51.358;5.628;2023-02-18T15:52:45;1.00;0.00;0.00
46302;PMS7003;32029;51.358;5.628;2023-02-18T15:55:35;0.00;0.00;0.00
46302;PMS7003;32029;51.358;5.628;2023-02-18T15:58:04;1.00;0.33;0.33
46302;PMS7003;32029;51.358;5.628;2023-02-18T16:00:47;1.00;0.00;0.00
46302;PMS7003;32029;51.358;5.628;2023-02-18T16:03:18;2.00;1.00;0.67
46302;PMS7003;32029;51.358;5.628;2023-02-18T16:08:37;0.00;0.00;0.00
46302;PMS7003;32029;51.358;5.628;2023-02-18T16:11:07;0.00;0.00;0.00
46302;PMS7003;32029;51.358;5.628;2023-02-18T16:13:43;1.00;0.00;0.00
46302;PMS7003;32029;51.358;5.628;2023-02-18T16:16:29;0.00;0.00;0.00
46302;PMS7003;32029;51.358;5.628;2023-02-18T16:19:02;3.67;0.00;0.00
46302;PMS7003;32029;51.358;5.628;2023-02-18T16:21:30;0.00;0.00;0.00
46302;PMS7003;32029;51.358;5.628;2023-02-18T16:26:50;0.67;0.67;0.67
46302;PMS7003;32029;51.358;5.628;2023-02-18T16:29:25;3.00;1.00;0.00
46302;PMS7003;32029;51.358;5.628;2023-02-18T16:31:59;1.00;0.00;0.00
46302;PMS7003;32029;51.358;5.628;2023-02-18T16:34:26;1.00;1.00;0.00
46302;PMS7003;32029;51.358;5.628;2023-02-18T16:36:53;0.00;0.00;0.00
46302;PMS7003;32029;51.358;5.628;2023-02-18T16:39:38;1.00;1.00;0.00
46302;PMS7003;32029;51.358;5.628;2023-02-18T16:42:09;1.67;1.67;1.00
46302;PMS7003;32029;51.358;5.628;2023-02-18T16:44:36;0.00;0.00;0.00
46302;PMS7003;32029;51.358;5.628;2023-02-18T16:47:03;0.67;0.67;0.00
46302;PMS7003;32029;51.358;5.628;2023-02-18T16:49:31;1.33;1.00;0.00
46302;PMS7003;32029;51.358;5.628;2023-02-18T16:52:00;1.00;1.00;0.33
46302;PMS7003;32029;51.358;5.628;2023-02-18T16:54:31;0.33;0.00;0.00
46302;PMS7003;32029;51.358;5.628;2023-02-18T16:56:58;0.67;0.67;0.67
46302;PMS7003;32029;51.358;5.628;2023-02-18T16:59:24;0.00;0.00;0.00
46302;PMS7003;32029;51.358;5.628;2023-02-18T17:01:51;1.00;0.00;0.00
46302;PMS7003;32029;51.358;5.628;2023-02-18T17:04:18;3.33;0.00;0.00
46302;PMS7003;32029;51.358;5.628;2023-02-18T17:06:45;0.00;0.00;0.00
46302;PMS7003;32029;51.358;5.628;2023-02-18T17:09:18;1.00;1.00;1.00
46302;PMS7003;32029;51.358;5.628;2023-02-18T17:11:50;0.33;0.33;0.33
46302;PMS7003;32029;51.358;5.628;2023-02-18T17:14:20;2.00;1.00;1.00
46302;PMS7003;32029;51.358;5.628;2023-02-18T17:16:48;0.00;0.00;0.00
46302;PMS7003;32029;51.358;5.628;2023-02-18T17:19:17;0.00;0.00;0.00
46302;PMS7003;32029;51.358;5.628;2023-02-18T17:21:44;0.00;0.00;0.00
46302;PMS7003;32029;51.358;5.628;2023-02-18T17:24:14;0.33;0.33;0.33
46302;PMS7003;32029;51.358;5.628;2023-02-18T17:26:42;0.00;0.00;0.00
46302;PMS7003;32029;51.358;5.628;2023-02-18T17:29:09;1.00;1.00;1.00
46302;PMS7003;32029;51.358;5.628;2023-02-18T17:31:36;1.67;0.67;0.67
46302;PMS7003;32029;51.358;5.628;2023-02-18T17:34:07;0.67;0.00;0.00
46302;PMS7003;32029;51.358;5.628;2023-02-18T17:36:37;0.00;0.00;0.00